»·PEaware :: N229MR KSNA-KSNA

N229MR :: KSNA-KSNA

FLIGHT INFORMATION

Flight Status: Arrived
Operator: Privately registered:
United States
More flights under this callsign
Pilot: Oystein R. (30115)
Aircraft: Diamond DA-62
(DA62)
More flights by this aircraft type
Origin: KSNA John Wayne-Orange Co
United States
Destination: KSNA John Wayne-Orange Co
United States
More flights between these airports :: More routes between these airports
Route: SLI
File this flight plan on PilotEdge
Remarks:
Altitude:
(Current/Filed)
3,000ft
Speed:
(Current/Filed)
155kts
Departed: 15-Nov-20 10:58 AM
Arrived: 15-Nov-20 11:22 AM
Distance/Time
Traveled:
0nm/0:24
Distance/Time
To Go:
Arrived

Flight Plot

Page will automatically refresh every two minutes.


Map Options




Map Legend


Flown Route
Filed Route
Departure Airport
Arrival Airport
Navaid (VOR, NDB)
Fix

Horizontal Profiles

Position Reports

Time Latitude Longitude Heading Altitude Ground
Speed
15-Nov-20 09:53 33.673572 -117.872563 297 60ft 0kts
15-Nov-20 09:54 33.673572 -117.872563 297 60ft 0kts
15-Nov-20 09:55 33.673572 -117.872563 297 60ft 0kts
15-Nov-20 09:56 33.673572 -117.872563 297 60ft 0kts
15-Nov-20 09:57 33.673572 -117.872563 297 60ft 0kts
15-Nov-20 09:58 33.673572 -117.872563 297 60ft 0kts
15-Nov-20 09:59 33.673572 -117.872563 297 60ft 0kts
15-Nov-20 10:00 33.673572 -117.872563 297 60ft 0kts
15-Nov-20 10:01 33.673572 -117.872563 297 60ft 0kts
15-Nov-20 10:02 33.673572 -117.872563 297 60ft 0kts
15-Nov-20 10:03 33.673572 -117.872563 297 60ft 0kts
15-Nov-20 10:04 33.673572 -117.872563 297 60ft 0kts
15-Nov-20 10:05 33.673572 -117.872563 297 60ft 0kts
15-Nov-20 10:06 33.673572 -117.872563 297 60ft 0kts
15-Nov-20 10:07 33.673572 -117.872563 297 60ft 0kts
15-Nov-20 10:08 33.673572 -117.872563 297 60ft 0kts
15-Nov-20 10:09 33.673572 -117.872563 297 60ft 0kts
15-Nov-20 10:10 33.673572 -117.872563 297 60ft 0kts
15-Nov-20 10:11 33.673572 -117.872563 297 60ft 0kts
15-Nov-20 10:12 33.673572 -117.872563 297 60ft 0kts
15-Nov-20 10:13 33.673572 -117.872563 297 60ft 0kts
15-Nov-20 10:14 33.673572 -117.872563 297 60ft 0kts
15-Nov-20 10:16 33.673572 -117.872563 297 60ft 0kts
15-Nov-20 10:17 33.673572 -117.872563 297 60ft 0kts
15-Nov-20 10:18 33.673572 -117.872563 297 60ft 0kts
15-Nov-20 10:19 33.673572 -117.872563 297 60ft 0kts
15-Nov-20 10:20 33.673572 -117.872563 297 60ft 0kts
15-Nov-20 10:21 33.673572 -117.872563 297 60ft 0kts
15-Nov-20 10:22 33.673572 -117.872563 297 60ft 0kts
15-Nov-20 10:23 33.673572 -117.872563 297 60ft 0kts
15-Nov-20 10:24 33.673572 -117.872563 297 60ft 0kts
15-Nov-20 10:25 33.673572 -117.872563 297 60ft 0kts
15-Nov-20 10:26 33.673572 -117.872563 297 60ft 0kts
15-Nov-20 10:27 33.673572 -117.872563 297 60ft 0kts
15-Nov-20 10:28 33.673572 -117.872563 297 60ft 0kts
15-Nov-20 10:29 33.673572 -117.872563 297 60ft 0kts
15-Nov-20 10:29 33.673572 -117.872563 297 60ft 0kts
15-Nov-20 10:31 33.673572 -117.872563 297 60ft 0kts
15-Nov-20 10:32 33.673572 -117.872563 297 60ft 0kts
15-Nov-20 10:32 33.673572 -117.872563 297 60ft 0kts
15-Nov-20 10:34 33.673572 -117.872563 297 60ft 0kts
15-Nov-20 10:34 33.673572 -117.872563 297 60ft 0kts
15-Nov-20 10:36 33.673572 -117.872563 297 60ft 0kts
15-Nov-20 10:36 33.673572 -117.872563 297 60ft 0kts
15-Nov-20 10:37 33.673572 -117.872563 297 60ft 0kts
15-Nov-20 10:38 33.673572 -117.872563 297 60ft 0kts
15-Nov-20 10:39 33.673572 -117.872563 297 60ft 0kts
15-Nov-20 10:40 33.673572 -117.872563 297 60ft 0kts
15-Nov-20 10:41 33.673572 -117.872563 297 60ft 0kts
15-Nov-20 10:42 33.673572 -117.872563 297 60ft 0kts
15-Nov-20 10:43 33.673572 -117.872563 297 60ft 0kts
15-Nov-20 10:44 33.673572 -117.872563 297 60ft 0kts
15-Nov-20 10:45 33.673572 -117.872563 297 60ft 0kts
15-Nov-20 10:46 33.673572 -117.872563 297 60ft 0kts
15-Nov-20 10:47 33.673572 -117.872563 297 60ft 0kts
15-Nov-20 10:48 33.673572 -117.872563 297 60ft 0kts
15-Nov-20 10:49 33.673572 -117.872563 297 60ft 0kts
15-Nov-20 10:50 33.673572 -117.872563 297 60ft 0kts
15-Nov-20 10:51 33.673507 -117.872555 111 60ft 0kts
15-Nov-20 10:52 33.673507 -117.872554 111 60ft 0kts
15-Nov-20 10:53 33.673632 -117.871648 28 60ft 15kts
15-Nov-20 10:54 33.678995 -117.868260 25 60ft 23kts
15-Nov-20 10:55 33.681224 -117.866489 108 60ft 0kts
15-Nov-20 10:56 33.680673 -117.865694 190 60ft 14kts
15-Nov-20 10:57 33.663485 -117.876992 224 605ft 93kts
15-Nov-20 10:58 33.648247 -117.907029 241 1713ft 118kts
15-Nov-20 10:59 33.629488 -117.945284 241 2013ft 149kts
15-Nov-20 11:00 33.607836 -117.989896 241 2109ft 152kts
15-Nov-20 11:01 33.628455 -118.009200 20 2957ft 129kts
15-Nov-20 11:02 33.665690 -117.990637 21 3009ft 151kts
15-Nov-20 11:03 33.704916 -117.970987 21 3008ft 153kts
15-Nov-20 11:04 33.744482 -117.951120 21 3008ft 154kts
15-Nov-20 11:05 33.783879 -117.931297 21 3007ft 153kts
15-Nov-20 11:06 33.822895 -117.911699 21 3008ft 151kts
15-Nov-20 11:07 33.861841 -117.892213 21 3008ft 152kts
15-Nov-20 11:08 33.900923 -117.872756 21 3008ft 152kts
15-Nov-20 11:09 33.940144 -117.853351 21 3012ft 152kts
15-Nov-20 11:10 33.978080 -117.832226 53 3016ft 152kts
15-Nov-20 11:11 33.979281 -117.781063 91 2986ft 155kts
15-Nov-20 11:12 33.977046 -117.728835 94 2958ft 156kts
15-Nov-20 11:13 33.939140 -117.713629 180 2921ft 161kts
15-Nov-20 11:14 33.897202 -117.726814 209 2906ft 159kts
15-Nov-20 11:15 33.858430 -117.752409 208 2926ft 158kts
15-Nov-20 11:16 33.819544 -117.777282 208 2946ft 158kts
15-Nov-20 11:17 33.779637 -117.802720 207 2247ft 162kts
15-Nov-20 11:18 33.742319 -117.826480 207 1425ft 138kts
15-Nov-20 11:19 33.714673 -117.844073 207 817ft 90kts
15-Nov-20 11:20 33.692578 -117.858081 208 342ft 92kts
15-Nov-20 11:21 33.674257 -117.869849 237 60ft 16kts
15-Nov-20 11:22 33.673401 -117.871766 206 60ft 13kts
15-Nov-20 11:23 33.672581 -117.872972 208 60ft 0kts
15-Nov-20 11:24 33.672581 -117.872972 208 60ft 0kts
15-Nov-20 11:25 33.672581 -117.872972 208 60ft 0kts
15-Nov-20 11:26 33.672581 -117.872972 208 60ft 0kts
15-Nov-20 11:27 33.672581 -117.872972 208 60ft 0kts
15-Nov-20 11:28 33.672581 -117.872972 208 60ft 0kts
15-Nov-20 11:29 33.672581 -117.872972 208 60ft 0kts
15-Nov-20 11:30 33.672581 -117.872972 208 60ft 0kts
15-Nov-20 11:31 33.672581 -117.872972 208 60ft 0kts
15-Nov-20 11:32 33.672581 -117.872972 208 60ft 0kts
15-Nov-20 11:33 33.672581 -117.872972 208 60ft 0kts
15-Nov-20 11:34 33.672581 -117.872972 208 60ft 0kts
15-Nov-20 11:35 33.672581 -117.872972 208 60ft 0kts

Navigation Log

Ident Type
Flight plan parsing failed, navigation log unavailable